Time;durP1;ratioP1;P1;durP2;ratioP2;P2;SDS_P1;SDS_P2;PMS_P1;PMS_P2;Temp;Humidity;BMP_temperature;BMP_pressure;BME280_temperature;BME280_humidity;BME280_pressure;Samples;Min_cycle;Max_cycle;Signal;HPM_P1;HPM_P2
2021/08/19 00:00:11;;;;;;;6.20;4.53;;;;;;;;;;5074023;28;20517;-70
2021/08/19 00:02:39;;;;;;;7.40;4.50;;;;;;;;;;5071341;28;20522;-71
2021/08/19 00:05:07;;;;;;;6.57;5.03;;;;;;;;;;5069638;28;20476;-71
2021/08/19 00:07:35;;;;;;;6.23;4.50;;;;;;;;;;5070360;28;21025;-71
2021/08/19 00:10:03;;;;;;;7.00;5.60;;;;;;;;;;5071871;28;20502;-71
2021/08/19 00:12:31;;;;;;;8.20;4.53;;;;;;;;;;5071760;28;20452;-71
2021/08/19 00:14:58;;;;;;;7.53;4.43;;;;;;;;;;5071232;28;20475;-71
2021/08/19 00:17:31;;;;;;;5.97;4.10;;;;;;;;;;5072077;28;20492;-70
2021/08/19 00:19:59;;;;;;;3.37;3.07;;;;;;;;;;5075386;28;20894;-70
2021/08/19 00:22:29;;;;;;;4.90;4.40;;;;;;;;;;5078145;28;20466;-71
2021/08/19 00:24:56;;;;;;;4.10;3.33;;;;;;;;;;5077948;28;20468;-70
2021/08/19 00:27:24;;;;;;;5.93;3.80;;;;;;;;;;5079810;28;20457;-70
2021/08/19 00:29:52;;;;;;;5.00;2.83;;;;;;;;;;5077471;28;20452;-71
2021/08/19 00:32:20;;;;;;;8.83;4.17;;;;;;;;;;5077182;28;20448;-70
2021/08/19 00:34:49;;;;;;;5.87;3.77;;;;;;;;;;5080209;28;20485;-71
2021/08/19 00:37:17;;;;;;;5.90;4.13;;;;;;;;;;5080481;28;20525;-71
2021/08/19 00:39:45;;;;;;;7.00;4.40;;;;;;;;;;5077957;28;20523;-71
2021/08/19 00:42:13;;;;;;;6.10;3.93;;;;;;;;;;5080699;28;20491;-71
2021/08/19 00:44:41;;;;;;;6.43;4.40;;;;;;;;;;5080238;28;20479;-71
2021/08/19 00:47:09;;;;;;;5.00;3.90;;;;;;;;;;5080407;28;20543;-71
2021/08/19 00:49:36;;;;;;;4.50;3.63;;;;;;;;;;5078342;28;20550;-71
2021/08/19 00:52:06;;;;;;;6.43;4.83;;;;;;;;;;5078844;28;20462;-71
2021/08/19 00:54:34;;;;;;;5.80;4.40;;;;;;;;;;5076874;28;20459;-71
2021/08/19 00:57:03;;;;;;;7.67;4.00;;;;;;;;;;5078118;28;20466;-71
2021/08/19 00:59:31;;;;;;;4.50;4.00;;;;;;;;;;5061886;28;20967;-70
2021/08/19 01:02:00;;;;;;;6.50;4.30;;;;;;;;;;5077698;28;20476;-71
2021/08/19 01:04:28;;;;;;;6.07;4.03;;;;;;;;;;5077652;28;20954;-71
2021/08/19 01:06:55;;;;;;;9.23;4.87;;;;;;;;;;5078845;28;20543;-71
2021/08/19 01:09:25;;;;;;;11.73;5.43;;;;;;;;;;5077866;28;20547;-71
2021/08/19 01:11:55;;;;;;;7.93;5.10;;;;;;;;;;5077928;28;20460;-71
2021/08/19 01:14:23;;;;;;;9.07;4.30;;;;;;;;;;5078198;28;21095;-70
2021/08/19 01:16:51;;;;;;;5.83;3.80;;;;;;;;;;5078308;28;20470;-71
2021/08/19 01:19:19;;;;;;;6.23;4.47;;;;;;;;;;5077782;28;20480;-70
2021/08/19 01:21:48;;;;;;;7.73;5.33;;;;;;;;;;5078883;28;20448;-70
2021/08/19 01:24:15;;;;;;;7.80;4.70;;;;;;;;;;5080277;28;20487;-70
2021/08/19 01:26:45;;;;;;;5.53;4.33;;;;;;;;;;5078019;28;20444;-71
2021/08/19 01:29:14;;;;;;;6.43;4.23;;;;;;;;;;5079498;28;20888;-71
2021/08/19 01:31:42;;;;;;;6.47;4.90;;;;;;;;;;5075055;28;20787;-71
2021/08/19 01:34:10;;;;;;;10.90;5.07;;;;;;;;;;5075189;28;20460;-71
2021/08/19 01:36:40;;;;;;;6.03;4.23;;;;;;;;;;5074492;28;20456;-70
2021/08/19 01:39:08;;;;;;;4.80;4.30;;;;;;;;;;5075127;28;20943;-71
2021/08/19 01:41:36;;;;;;;6.60;4.10;;;;;;;;;;5074871;28;20813;-70
2021/08/19 01:44:04;;;;;;;6.37;4.53;;;;;;;;;;5073556;28;20484;-71
2021/08/19 01:46:33;;;;;;;5.70;4.77;;;;;;;;;;5071974;28;20567;-70
2021/08/19 01:49:02;;;;;;;6.97;4.30;;;;;;;;;;5043063;28;20462;-70
2021/08/19 01:51:30;;;;;;;4.73;4.23;;;;;;;;;;5076549;28;20521;-70
2021/08/19 01:53:58;;;;;;;5.53;4.10;;;;;;;;;;5076775;28;20461;-70
2021/08/19 01:56:26;;;;;;;6.47;4.93;;;;;;;;;;5076879;28;20537;-71
2021/08/19 01:58:54;;;;;;;5.70;4.47;;;;;;;;;;5074049;28;20571;-70
2021/08/19 02:01:21;;;;;;;4.90;4.40;;;;;;;;;;5076194;28;20456;-70
2021/08/19 02:03:51;;;;;;;8.27;4.40;;;;;;;;;;5073682;28;20493;-71
2021/08/19 02:06:19;;;;;;;10.57;4.97;;;;;;;;;;5075894;28;20528;-71
2021/08/19 02:08:47;;;;;;;8.03;5.30;;;;;;;;;;5074257;28;20472;-70
2021/08/19 02:11:15;;;;;;;8.73;4.87;;;;;;;;;;5074776;28;20919;-71
2021/08/19 02:13:43;;;;;;;6.03;4.90;;;;;;;;;;5059935;28;20549;-70
2021/08/19 02:16:11;;;;;;;6.63;4.70;;;;;;;;;;5075816;28;20535;-70
2021/08/19 02:18:39;;;;;;;6.60;5.13;;;;;;;;;;5075617;28;20516;-71
2021/08/19 02:21:08;;;;;;;9.20;5.63;;;;;;;;;;5074094;28;20517;-71
2021/08/19 02:23:36;;;;;;;5.57;4.30;;;;;;;;;;5073876;28;20497;-70
2021/08/19 02:26:04;;;;;;;5.20;3.83;;;;;;;;;;5073720;28;20456;-71
2021/08/19 02:28:33;;;;;;;5.40;4.80;;;;;;;;;;5073241;28;20479;-70
2021/08/19 02:31:00;;;;;;;8.17;5.60;;;;;;;;;;5073233;28;20495;-70
2021/08/19 02:33:28;;;;;;;7.70;4.87;;;;;;;;;;5075794;28;20779;-70
2021/08/19 02:35:57;;;;;;;8.60;5.33;;;;;;;;;;5072894;28;20547;-70
2021/08/19 02:38:27;;;;;;;6.60;5.67;;;;;;;;;;5073061;28;20501;-71
2021/08/19 02:40:55;;;;;;;6.60;4.70;;;;;;;;;;5073871;28;20464;-70
2021/08/19 02:43:22;;;;;;;6.53;5.00;;;;;;;;;;5073653;28;20852;-70
2021/08/19 02:45:56;;;;;;;6.57;5.10;;;;;;;;;;5073187;28;20463;-71
2021/08/19 02:48:24;;;;;;;7.80;6.23;;;;;;;;;;5074000;28;20503;-71
2021/08/19 02:50:52;;;;;;;6.63;5.10;;;;;;;;;;5073022;28;20441;-70
2021/08/19 02:53:20;;;;;;;6.20;5.17;;;;;;;;;;5072676;28;20503;-71
2021/08/19 02:55:51;;;;;;;7.73;4.80;;;;;;;;;;5073414;28;20492;-71
2021/08/19 02:58:19;;;;;;;6.53;5.10;;;;;;;;;;5072624;28;20495;-71
2021/08/19 03:00:50;;;;;;;8.67;5.70;;;;;;;;;;5071467;28;20791;-71
2021/08/19 03:03:17;;;;;;;7.17;5.00;;;;;;;;;;5059421;28;20500;-71
2021/08/19 03:05:45;;;;;;;7.37;4.90;;;;;;;;;;5074653;28;20844;-71
2021/08/19 03:08:13;;;;;;;7.17;5.23;;;;;;;;;;5074978;28;20468;-71
2021/08/19 03:10:41;;;;;;;7.37;4.97;;;;;;;;;;5074776;28;20569;-71
2021/08/19 03:13:10;;;;;;;5.10;4.53;;;;;;;;;;5074326;28;20456;-71
2021/08/19 03:15:38;;;;;;;7.30;5.20;;;;;;;;;;5072164;28;20467;-71
2021/08/19 03:18:06;;;;;;;10.97;5.50;;;;;;;;;;5074869;28;20464;-71
2021/08/19 03:20:34;;;;;;;7.17;5.73;;;;;;;;;;5074934;28;20448;-71
2021/08/19 03:23:02;;;;;;;4.40;2.80;;;;;;;;;;5074626;28;21085;-70
2021/08/19 03:25:30;;;;;;;7.83;6.00;;;;;;;;;;5071638;28;20872;-71
2021/08/19 03:28:02;;;;;;;7.30;5.03;;;;;;;;;;5072570;28;20488;-70
2021/08/19 03:30:32;;;;;;;6.03;4.63;;;;;;;;;;5074116;28;20480;-71
2021/08/19 03:33:00;;;;;;;6.87;4.90;;;;;;;;;;5074859;28;20465;-71
2021/08/19 03:35:28;;;;;;;7.03;5.40;;;;;;;;;;5074352;28;20449;-71
2021/08/19 03:37:56;;;;;;;6.10;4.70;;;;;;;;;;5074516;28;20460;-70
2021/08/19 03:40:23;;;;;;;7.03;4.60;;;;;;;;;;5071982;28;20464;-71
2021/08/19 03:42:51;;;;;;;7.50;5.23;;;;;;;;;;5058823;28;20482;-71
2021/08/19 03:45:19;;;;;;;7.60;5.10;;;;;;;;;;5073418;28;20457;-71
2021/08/19 03:47:49;;;;;;;6.33;5.10;;;;;;;;;;5074711;28;20448;-71
2021/08/19 03:50:19;;;;;;;9.10;6.33;;;;;;;;;;5074571;28;20528;-71
2021/08/19 03:52:47;;;;;;;14.13;5.90;;;;;;;;;;5057782;28;20461;-71
2021/08/19 03:55:17;;;;;;;6.70;5.60;;;;;;;;;;5071209;28;20468;-71
2021/08/19 03:57:46;;;;;;;6.50;5.73;;;;;;;;;;5073765;28;20460;-71
2021/08/19 04:00:14;;;;;;;5.20;4.70;;;;;;;;;;5073191;28;20571;-71
2021/08/19 04:02:44;;;;;;;5.60;4.80;;;;;;;;;;5072228;28;20468;-71
2021/08/19 04:05:13;;;;;;;6.30;4.70;;;;;;;;;;5071830;28;20457;-71
2021/08/19 04:07:41;;;;;;;6.47;5.73;;;;;;;;;;5071447;28;20530;-71
2021/08/19 04:10:09;;;;;;;7.20;5.73;;;;;;;;;;5071117;28;20762;-71
2021/08/19 04:12:37;;;;;;;6.53;4.80;;;;;;;;;;5071096;28;20872;-71
2021/08/19 04:15:05;;;;;;;5.00;4.50;;;;;;;;;;5072301;28;20587;-71
2021/08/19 04:17:33;;;;;;;5.83;4.50;;;;;;;;;;5071816;28;20553;-71
2021/08/19 04:20:00;;;;;;;7.00;5.00;;;;;;;;;;5071376;28;20541;-71
2021/08/19 04:22:30;;;;;;;5.43;4.37;;;;;;;;;;5073532;28;20463;-70
2021/08/19 04:24:58;;;;;;;9.00;5.17;;;;;;;;;;5074440;28;20744;-71
2021/08/19 04:27:25;;;;;;;6.70;4.87;;;;;;;;;;5071501;28;20456;-71
2021/08/19 04:29:53;;;;;;;8.10;5.30;;;;;;;;;;5073330;28;20456;-71
2021/08/19 04:32:21;;;;;;;5.93;4.90;;;;;;;;;;5070461;28;20472;-71
2021/08/19 04:34:49;;;;;;;10.13;5.50;;;;;;;;;;5071620;28;20449;-71
2021/08/19 04:37:17;;;;;;;8.97;5.60;;;;;;;;;;5073233;28;20470;-71
2021/08/19 04:39:46;;;;;;;5.27;4.30;;;;;;;;;;5073459;28;20496;-71
2021/08/19 04:42:14;;;;;;;8.37;5.00;;;;;;;;;;5073644;28;20721;-71
2021/08/19 04:44:42;;;;;;;7.67;5.30;;;;;;;;;;5073033;28;20555;-71
2021/08/19 04:47:10;;;;;;;9.83;5.10;;;;;;;;;;5073277;28;20465;-71
2021/08/19 04:49:37;;;;;;;8.70;5.67;;;;;;;;;;5074184;28;20678;-70
2021/08/19 04:52:08;;;;;;;6.80;4.97;;;;;;;;;;5072975;28;20469;-71
2021/08/19 04:54:36;;;;;;;7.37;5.17;;;;;;;;;;5073319;28;20455;-71
2021/08/19 04:57:06;;;;;;;8.93;5.70;;;;;;;;;;5071271;28;20460;-71
2021/08/19 04:59:33;;;;;;;7.10;5.20;;;;;;;;;;5073427;28;20904;-71
2021/08/19 05:02:02;;;;;;;6.17;5.23;;;;;;;;;;5070794;28;20452;-71
2021/08/19 05:04:30;;;;;;;9.27;5.00;;;;;;;;;;5070406;28;20452;-71
2021/08/19 05:06:57;;;;;;;10.00;4.90;;;;;;;;;;5073802;28;20492;-71
2021/08/19 05:09:28;;;;;;;7.80;5.07;;;;;;;;;;5076012;28;20809;-71
2021/08/19 05:11:56;;;;;;;7.10;5.03;;;;;;;;;;5074467;28;20453;-71
2021/08/19 05:14:25;;;;;;;9.23;5.73;;;;;;;;;;5076869;28;20468;-71
2021/08/19 05:16:56;;;;;;;5.97;5.03;;;;;;;;;;5076845;28;20448;-71
2021/08/19 05:19:24;;;;;;;9.70;6.13;;;;;;;;;;5076906;28;20477;-71
2021/08/19 05:21:52;;;;;;;9.67;5.43;;;;;;;;;;5073778;28;20510;-71
2021/08/19 05:24:22;;;;;;;7.50;5.50;;;;;;;;;;5073954;28;20456;-71
2021/08/19 05:26:53;;;;;;;9.87;4.83;;;;;;;;;;5074716;28;20462;-71
2021/08/19 05:29:22;;;;;;;8.60;6.17;;;;;;;;;;5071312;28;20456;-71
2021/08/19 05:31:52;;;;;;;9.20;5.13;;;;;;;;;;5073337;28;20580;-71
2021/08/19 05:34:20;;;;;;;7.60;5.03;;;;;;;;;;5073766;28;20456;-71
2021/08/19 05:36:48;;;;;;;9.90;4.83;;;;;;;;;;5078313;28;20717;-71
2021/08/19 05:39:16;;;;;;;6.67;4.83;;;;;;;;;;5075657;28;20752;-71
2021/08/19 05:41:44;;;;;;;9.50;6.40;;;;;;;;;;5075801;28;20453;-71
2021/08/19 05:44:12;;;;;;;10.07;5.40;;;;;;;;;;5074088;28;20801;-70
2021/08/19 05:46:40;;;;;;;8.00;5.90;;;;;;;;;;5075063;28;20547;-71
2021/08/19 05:49:09;;;;;;;9.47;6.00;;;;;;;;;;5076606;28;20884;-71
2021/08/19 05:51:38;;;;;;;9.73;6.43;;;;;;;;;;5075522;28;20531;-71
2021/08/19 05:54:07;;;;;;;7.50;5.30;;;;;;;;;;5072310;28;20454;-71
2021/08/19 05:56:35;;;;;;;7.67;6.07;;;;;;;;;;5057938;28;20458;-71
2021/08/19 05:59:02;;;;;;;10.20;5.40;;;;;;;;;;5073427;28;20834;-71
2021/08/19 06:01:33;;;;;;;6.47;4.00;;;;;;;;;;5074720;28;20464;-71
2021/08/19 06:04:04;;;;;;;6.80;4.80;;;;;;;;;;5072712;28;20474;-71
2021/08/19 06:06:36;;;;;;;7.00;4.07;;;;;;;;;;5073465;28;20456;-71
2021/08/19 06:09:06;;;;;;;10.60;4.57;;;;;;;;;;5067516;28;20483;-72
2021/08/19 06:11:34;;;;;;;7.20;4.23;;;;;;;;;;5073700;28;20461;-71
2021/08/19 06:14:02;;;;;;;4.47;3.40;;;;;;;;;;5073287;28;20800;-71
2021/08/19 06:16:30;;;;;;;5.60;5.00;;;;;;;;;;5076018;28;20467;-71
2021/08/19 06:19:00;;;;;;;7.00;3.93;;;;;;;;;;5089049;28;20815;-71
2021/08/19 06:21:27;;;;;;;6.43;4.53;;;;;;;;;;5077534;28;20463;-71
2021/08/19 06:23:57;;;;;;;8.23;4.20;;;;;;;;;;5078385;28;20461;-71
2021/08/19 06:26:26;;;;;;;6.50;4.40;;;;;;;;;;5072845;28;20477;-71
2021/08/19 06:28:54;;;;;;;7.97;3.73;;;;;;;;;;5071264;28;20542;-71
2021/08/19 06:31:24;;;;;;;9.00;4.00;;;;;;;;;;5072799;28;20452;-72
2021/08/19 06:33:56;;;;;;;7.90;5.23;;;;;;;;;;5080273;28;20555;-72
2021/08/19 06:36:24;;;;;;;8.60;4.37;;;;;;;;;;5070879;28;20468;-71
2021/08/19 06:38:53;;;;;;;9.53;5.67;;;;;;;;;;5069527;28;20467;-73
2021/08/19 06:41:24;;;;;;;5.20;4.10;;;;;;;;;;5079248;28;20449;-72
2021/08/19 06:43:53;;;;;;;8.63;3.87;;;;;;;;;;5071880;28;20743;-71
2021/08/19 06:46:20;;;;;;;6.10;4.23;;;;;;;;;;5074856;28;20464;-71
2021/08/19 06:48:48;;;;;;;8.60;5.60;;;;;;;;;;5074345;28;20527;-71
2021/08/19 06:51:16;;;;;;;6.57;4.63;;;;;;;;;;5073142;28;20550;-71
2021/08/19 06:53:44;;;;;;;6.10;4.37;;;;;;;;;;5071682;28;20468;-71
2021/08/19 06:56:14;;;;;;;4.43;4.03;;;;;;;;;;5071288;28;20461;-71
2021/08/19 06:58:44;;;;;;;6.53;4.93;;;;;;;;;;5071851;28;20522;-70
2021/08/19 07:01:12;;;;;;;6.20;4.93;;;;;;;;;;5071102;28;20508;-71
2021/08/19 07:03:40;;;;;;;6.50;4.20;;;;;;;;;;5069459;28;20884;-72
2021/08/19 07:06:11;;;;;;;8.70;6.10;;;;;;;;;;5073103;28;20456;-70
2021/08/19 07:08:39;;;;;;;7.00;4.93;;;;;;;;;;5074362;28;20453;-72
2021/08/19 07:11:07;;;;;;;6.80;4.57;;;;;;;;;;5071697;28;20748;-70
2021/08/19 07:13:38;;;;;;;6.00;4.87;;;;;;;;;;5073399;28;20525;-70
2021/08/19 07:16:13;;;;;;;5.33;4.67;;;;;;;;;;5076322;28;20993;-72
2021/08/19 07:18:41;;;;;;;6.83;4.20;;;;;;;;;;5073708;28;20485;-70
2021/08/19 07:21:10;;;;;;;9.13;4.87;;;;;;;;;;5073327;28;20837;-71
2021/08/19 07:23:38;;;;;;;8.00;5.23;;;;;;;;;;5070875;28;20789;-71
2021/08/19 07:26:11;;;;;;;6.00;4.80;;;;;;;;;;5076458;28;20529;-72
2021/08/19 07:28:39;;;;;;;6.00;4.40;;;;;;;;;;5067240;28;20441;-71
2021/08/19 07:31:13;;;;;;;8.27;5.30;;;;;;;;;;5076090;28;20456;-72
2021/08/19 07:33:43;;;;;;;6.50;4.90;;;;;;;;;;5076930;28;20453;-72
2021/08/19 07:36:12;;;;;;;10.13;7.63;;;;;;;;;;5076093;28;20541;-71
2021/08/19 07:38:40;;;;;;;11.23;5.20;;;;;;;;;;5073261;28;20510;-71
2021/08/19 07:41:10;;;;;;;8.63;5.27;;;;;;;;;;5073820;28;20530;-70
2021/08/19 07:43:38;;;;;;;5.90;4.50;;;;;;;;;;5070887;28;20465;-71
2021/08/19 07:46:09;;;;;;;9.27;5.17;;;;;;;;;;5071409;28;20468;-71
2021/08/19 07:48:40;;;;;;;6.20;4.33;;;;;;;;;;5075584;28;20448;-71
2021/08/19 07:51:08;;;;;;;6.83;4.90;;;;;;;;;;5073216;28;20460;-71
2021/08/19 07:53:36;;;;;;;7.27;5.50;;;;;;;;;;5055179;28;20461;-70
2021/08/19 07:56:03;;;;;;;7.43;4.00;;;;;;;;;;5070023;28;20471;-71
2021/08/19 07:58:31;;;;;;;5.27;3.40;;;;;;;;;;5070029;28;20558;-71
2021/08/19 08:00:59;;;;;;;11.30;4.63;;;;;;;;;;5070687;28;20488;-71
2021/08/19 08:03:28;;;;;;;8.80;4.10;;;;;;;;;;5070331;28;20452;-71
2021/08/19 08:05:57;;;;;;;5.87;4.03;;;;;;;;;;5069315;28;20563;-71
2021/08/19 08:08:25;;;;;;;5.13;3.30;;;;;;;;;;5063595;28;20453;-71
2021/08/19 08:10:54;;;;;;;4.63;3.77;;;;;;;;;;5067385;28;20465;-71
2021/08/19 08:13:25;;;;;;;6.30;4.07;;;;;;;;;;5070316;28;20449;-71
2021/08/19 08:15:54;;;;;;;8.23;4.60;;;;;;;;;;5069720;28;20872;-70
2021/08/19 08:18:25;;;;;;;5.00;3.40;;;;;;;;;;5038673;28;20470;-70
2021/08/19 08:20:57;;;;;;;6.90;3.30;;;;;;;;;;5072670;28;20926;-71
2021/08/19 08:23:26;;;;;;;7.93;3.90;;;;;;;;;;5069359;28;20471;-70
2021/08/19 08:25:55;;;;;;;5.80;3.90;;;;;;;;;;5070706;28;20725;-71
2021/08/19 08:28:26;;;;;;;6.17;3.90;;;;;;;;;;5067837;28;20867;-70
2021/08/19 08:30:54;;;;;;;7.20;4.27;;;;;;;;;;5069245;28;20469;-72
2021/08/19 08:33:22;;;;;;;8.73;4.03;;;;;;;;;;5071051;28;20901;-71
2021/08/19 08:35:57;;;;;;;6.43;3.20;;;;;;;;;;5070008;28;20464;-73
2021/08/19 08:41:12;;;;;;;6.97;4.00;;;;;;;;;;5074765;28;20571;-72
2021/08/19 08:43:41;;;;;;;6.07;4.00;;;;;;;;;;5074175;28;20645;-71
2021/08/19 08:46:10;;;;;;;6.30;4.40;;;;;;;;;;5076340;28;20487;-71
2021/08/19 08:48:39;;;;;;;7.63;4.27;;;;;;;;;;5076987;28;21161;-71
2021/08/19 08:51:08;;;;;;;9.97;4.90;;;;;;;;;;5072832;28;20488;-71
2021/08/19 08:53:37;;;;;;;6.50;5.00;;;;;;;;;;5073946;28;20478;-72
2021/08/19 08:56:05;;;;;;;8.27;3.77;;;;;;;;;;5073958;28;20508;-71
2021/08/19 08:58:33;;;;;;;8.03;4.30;;;;;;;;;;5070289;28;20466;-71
2021/08/19 09:01:04;;;;;;;6.73;4.40;;;;;;;;;;5072264;28;20527;-71
2021/08/19 09:03:32;;;;;;;6.23;4.20;;;;;;;;;;5072793;28;20538;-70
2021/08/19 09:06:01;;;;;;;7.87;5.03;;;;;;;;;;5072062;28;20492;-70
2021/08/19 09:08:29;;;;;;;7.23;3.83;;;;;;;;;;5073663;28;20464;-71
2021/08/19 09:11:03;;;;;;;6.77;3.53;;;;;;;;;;5073955;28;21089;-71
2021/08/19 09:13:33;;;;;;;5.17;3.70;;;;;;;;;;5073931;28;20542;-71
2021/08/19 09:16:15;;;;;;;7.00;5.43;;;;;;;;;;5072399;28;20470;-70
2021/08/19 09:18:42;;;;;;;5.40;3.50;;;;;;;;;;5078365;28;20463;-70
2021/08/19 09:21:19;;;;;;;8.50;4.73;;;;;;;;;;5077385;28;20480;-70
2021/08/19 09:23:52;;;;;;;5.40;4.10;;;;;;;;;;5075631;28;20455;-71
2021/08/19 09:26:39;;;;;;;6.03;3.67;;;;;;;;;;5073011;28;20472;-70
2021/08/19 09:29:32;;;;;;;7.17;3.43;;;;;;;;;;5073831;28;20445;-69
2021/08/19 09:32:10;;;;;;;6.10;4.20;;;;;;;;;;5034793;28;20466;-70
2021/08/19 09:34:50;;;;;;;7.70;4.33;;;;;;;;;;5072233;28;20433;-70
2021/08/19 09:37:19;;;;;;;7.63;4.30;;;;;;;;;;5048863;28;20440;-71
2021/08/19 09:39:56;;;;;;;7.40;5.23;;;;;;;;;;5062761;28;20452;-71
2021/08/19 09:42:36;;;;;;;6.53;4.53;;;;;;;;;;5072210;28;20531;-71
2021/08/19 09:45:18;;;;;;;6.27;4.93;;;;;;;;;;5078494;28;20459;-70
2021/08/19 09:47:45;;;;;;;6.27;4.90;;;;;;;;;;5072447;28;20527;-70
2021/08/19 09:50:14;;;;;;;6.90;5.53;;;;;;;;;;5074332;28;20495;-69
2021/08/19 09:52:45;;;;;;;11.80;5.97;;;;;;;;;;5077113;28;20448;-70
2021/08/19 09:55:23;;;;;;;10.17;6.07;;;;;;;;;;5073454;28;21103;-71
2021/08/19 09:57:54;;;;;;;8.00;4.50;;;;;;;;;;5073757;28;20521;-71
2021/08/19 10:00:26;;;;;;;8.47;5.77;;;;;;;;;;5076246;28;20825;-70
2021/08/19 10:02:54;;;;;;;7.87;5.63;;;;;;;;;;5054715;28;20930;-71
2021/08/19 10:05:25;;;;;;;8.00;5.73;;;;;;;;;;5053703;28;20495;-71
2021/08/19 10:07:55;;;;;;;8.43;5.20;;;;;;;;;;5054159;28;20531;-71
2021/08/19 10:10:26;;;;;;;6.33;4.93;;;;;;;;;;5078123;28;20522;-71
2021/08/19 10:12:58;;;;;;;8.53;5.27;;;;;;;;;;5077421;28;20575;-71
2021/08/19 10:15:30;;;;;;;7.70;5.17;;;;;;;;;;5076492;28;20585;-70
2021/08/19 10:17:59;;;;;;;6.37;4.90;;;;;;;;;;5074361;28;20464;-70
2021/08/19 10:20:29;;;;;;;6.63;5.57;;;;;;;;;;5074338;28;20476;-70
2021/08/19 10:23:02;;;;;;;7.60;5.90;;;;;;;;;;5066811;28;20868;-71
2021/08/19 10:25:35;;;;;;;6.80;5.10;;;;;;;;;;5075801;28;20812;-73
2021/08/19 10:28:21;;;;;;;6.57;4.13;;;;;;;;;;5071895;28;20474;-72
2021/08/19 10:30:51;;;;;;;6.23;4.27;;;;;;;;;;5077269;28;20475;-72
2021/08/19 10:33:37;;;;;;;6.87;4.90;;;;;;;;;;5076231;28;20463;-70
2021/08/19 10:36:31;;;;;;;8.07;4.30;;;;;;;;;;5077131;28;20912;-71
2021/08/19 10:39:19;;;;;;;6.90;4.87;;;;;;;;;;5075999;28;20448;-71
2021/08/19 10:41:47;;;;;;;6.97;5.30;;;;;;;;;;5067921;28;20972;-71
2021/08/19 10:44:26;;;;;;;6.10;3.80;;;;;;;;;;5070184;28;20748;-72
2021/08/19 10:46:55;;;;;;;5.40;3.90;;;;;;;;;;5039514;28;20458;-71
2021/08/19 10:49:32;;;;;;;6.20;3.73;;;;;;;;;;5070736;28;20476;-71
2021/08/19 10:52:25;;;;;;;9.50;3.83;;;;;;;;;;5071373;28;20448;-72
2021/08/19 10:55:11;;;;;;;7.00;3.77;;;;;;;;;;5071998;28;20730;-71
2021/08/19 10:57:52;;;;;;;4.07;2.93;;;;;;;;;;5062761;28;20453;-71
2021/08/19 11:00:35;;;;;;;10.80;3.73;;;;;;;;;;5071047;28;20660;-73
2021/08/19 11:03:14;;;;;;;4.30;3.20;;;;;;;;;;5071538;28;20563;-71
2021/08/19 11:05:58;;;;;;;4.37;3.23;;;;;;;;;;5076134;28;20456;-71
2021/08/19 11:08:42;;;;;;;7.17;3.90;;;;;;;;;;5051111;28;20459;-72
2021/08/19 11:11:26;;;;;;;5.70;3.70;;;;;;;;;;5069013;28;20457;-72
2021/08/19 11:13:59;;;;;;;4.93;3.07;;;;;;;;;;5076621;28;20464;-72
2021/08/19 11:16:28;;;;;;;6.67;3.10;;;;;;;;;;5070730;28;20949;-72
2021/08/19 11:19:12;;;;;;;4.60;2.60;;;;;;;;;;5075109;28;20456;-73
2021/08/19 11:21:43;;;;;;;4.57;2.80;;;;;;;;;;5075826;28;20488;-72
2021/08/19 11:24:11;;;;;;;7.67;2.97;;;;;;;;;;5075897;28;20534;-73
2021/08/19 11:26:39;;;;;;;4.77;3.07;;;;;;;;;;5071797;28;20457;-71
2021/08/19 11:29:15;;;;;;;4.70;2.80;;;;;;;;;;5071386;28;20892;-70
2021/08/19 11:31:44;;;;;;;2.73;2.20;;;;;;;;;;5071176;28;20452;-71
2021/08/19 11:34:13;;;;;;;7.03;2.53;;;;;;;;;;5071970;28;20477;-71
2021/08/19 11:36:43;;;;;;;9.70;3.30;;;;;;;;;;5071698;28;20496;-71
2021/08/19 11:39:17;;;;;;;4.80;2.63;;;;;;;;;;5073437;28;20657;-71
2021/08/19 11:42:01;;;;;;;5.10;3.20;;;;;;;;;;5071541;28;20479;-71
2021/08/19 11:44:35;;;;;;;4.23;2.23;;;;;;;;;;5070284;28;20460;-70
2021/08/19 11:47:11;;;;;;;5.17;3.70;;;;;;;;;;5072478;28;20453;-71
2021/08/19 11:49:45;;;;;;;6.60;3.87;;;;;;;;;;5069081;28;20456;-71
2021/08/19 11:52:16;;;;;;;7.53;3.80;;;;;;;;;;5057364;28;21074;-71
2021/08/19 11:54:46;;;;;;;5.90;4.30;;;;;;;;;;5072058;28;20456;-71
2021/08/19 11:57:25;;;;;;;7.00;4.97;;;;;;;;;;5070984;28;21133;-70
2021/08/19 12:00:03;;;;;;;6.93;3.70;;;;;;;;;;5071623;28;20498;-70
2021/08/19 12:02:31;;;;;;;5.47;4.00;;;;;;;;;;5072976;28;20492;-71
2021/08/19 12:05:04;;;;;;;5.40;3.90;;;;;;;;;;5071632;28;20518;-71
2021/08/19 12:07:32;;;;;;;7.43;4.30;;;;;;;;;;5070252;28;20470;-71
2021/08/19 12:10:02;;;;;;;5.93;3.77;;;;;;;;;;5068341;28;20487;-70
2021/08/19 12:12:35;;;;;;;5.30;3.90;;;;;;;;;;5070696;28;21006;-71
2021/08/19 12:15:12;;;;;;;6.00;4.27;;;;;;;;;;5069857;28;20522;-70
2021/08/19 12:17:43;;;;;;;6.00;3.70;;;;;;;;;;5068172;28;20483;-70
2021/08/19 12:20:27;;;;;;;;;;;;;;;;;;;;;
2021/08/19 12:22:55;;;;;;;5.57;3.50;;;;;;;;;;5069774;28;20772;-70
2021/08/19 12:25:23;;;;;;;4.40;2.87;;;;;;;;;;5069754;28;20475;-70
2021/08/19 12:28:06;;;;;;;5.73;3.40;;;;;;;;;;5075663;28;21043;-70
2021/08/19 12:30:34;;;;;;;6.40;3.27;;;;;;;;;;5075385;28;20460;-70
2021/08/19 12:33:05;;;;;;;3.73;2.50;;;;;;;;;;5074957;28;20471;-70
2021/08/19 12:35:50;;;;;;;4.90;3.50;;;;;;;;;;5062251;28;20526;-70
2021/08/19 12:38:24;;;;;;;8.03;3.87;;;;;;;;;;5068954;28;20563;-69
2021/08/19 12:40:52;;;;;;;6.50;4.10;;;;;;;;;;5069210;28;20456;-70
2021/08/19 12:43:23;;;;;;;6.37;3.20;;;;;;;;;;5074486;28;20510;-69
2021/08/19 12:46:06;;;;;;;5.27;2.80;;;;;;;;;;5067170;28;20461;-70
2021/08/19 12:48:40;;;;;;;3.90;2.77;;;;;;;;;;5039129;28;20476;-69
2021/08/19 12:51:27;;;;;;;6.10;4.07;;;;;;;;;;5069183;28;20868;-69
2021/08/19 12:54:09;;;;;;;5.33;2.70;;;;;;;;;;5069597;28;20532;-69
2021/08/19 12:56:38;;;;;;;4.73;2.97;;;;;;;;;;5068832;28;20503;-69
2021/08/19 12:59:06;;;;;;;5.30;3.10;;;;;;;;;;5073273;28;20540;-71
2021/08/19 13:01:37;;;;;;;4.23;3.17;;;;;;;;;;5068079;28;20504;-69
2021/08/19 13:04:05;;;;;;;4.70;3.30;;;;;;;;;;5072429;28;20456;-69
2021/08/19 13:06:37;;;;;;;4.67;3.70;;;;;;;;;;5054086;28;20851;-69
2021/08/19 13:09:05;;;;;;;4.70;3.20;;;;;;;;;;5068844;28;20496;-71
2021/08/19 13:11:33;;;;;;;4.60;3.43;;;;;;;;;;5069371;28;20464;-69
2021/08/19 13:14:01;;;;;;;5.77;3.27;;;;;;;;;;5069690;28;20457;-69
2021/08/19 13:16:31;;;;;;;3.63;3.20;;;;;;;;;;5070104;28;20465;-69
2021/08/19 13:18:59;;;;;;;4.77;2.87;;;;;;;;;;5062552;28;20464;-69
2021/08/19 13:21:30;;;;;;;4.47;3.60;;;;;;;;;;5068730;28;20588;-70
2021/08/19 13:24:02;;;;;;;4.23;3.03;;;;;;;;;;5069041;28;20460;-70
2021/08/19 13:26:33;;;;;;;4.60;3.47;;;;;;;;;;5068200;28;20726;-70
2021/08/19 13:29:07;;;;;;;4.60;3.30;;;;;;;;;;5074349;28;20461;-70
2021/08/19 13:31:35;;;;;;;5.43;3.10;;;;;;;;;;5072149;28;20471;-70
2021/08/19 13:34:03;;;;;;;9.93;3.67;;;;;;;;;;5073463;28;20464;-70
2021/08/19 13:36:32;;;;;;;9.83;6.80;;;;;;;;;;5073231;28;20452;-70
2021/08/19 13:39:05;;;;;;;7.67;5.90;;;;;;;;;;5071652;28;20551;-70
2021/08/19 13:41:40;;;;;;;9.70;6.80;;;;;;;;;;5072488;28;20488;-70
2021/08/19 13:44:09;;;;;;;8.00;7.10;;;;;;;;;;5073082;28;20518;-69
2021/08/19 13:46:40;;;;;;;10.10;7.70;;;;;;;;;;5077631;28;20481;-72
2021/08/19 13:49:10;;;;;;;11.30;7.10;;;;;;;;;;5074598;28;21116;-69
2021/08/19 13:51:40;;;;;;;9.67;7.50;;;;;;;;;;5071350;28;20474;-71
2021/08/19 13:54:09;;;;;;;10.97;6.60;;;;;;;;;;5071704;28;20878;-71
2021/08/19 13:56:41;;;;;;;7.60;6.43;;;;;;;;;;5072582;28;20468;-72
2021/08/19 13:59:17;;;;;;;10.97;6.30;;;;;;;;;;5072284;28;20504;-70
2021/08/19 14:01:50;;;;;;;8.00;6.70;;;;;;;;;;5072213;28;20487;-73
2021/08/19 14:04:20;;;;;;;11.83;8.57;;;;;;;;;;5071886;28;20522;-71
2021/08/19 14:07:04;;;;;;;10.47;7.20;;;;;;;;;;5071683;28;20463;-72
2021/08/19 14:12:33;;;;;;;11.47;6.43;;;;;;;;;;5071068;28;20528;-70
2021/08/19 14:15:09;;;;;;;7.43;5.40;;;;;;;;;;5060014;28;20456;-71
2021/08/19 14:17:39;;;;;;;9.20;6.87;;;;;;;;;;5071466;28;20440;-70
2021/08/19 14:20:17;;;;;;;7.63;6.57;;;;;;;;;;5072357;28;20463;-71
2021/08/19 14:22:48;;;;;;;5.70;5.10;;;;;;;;;;5069990;28;20747;-70
2021/08/19 14:25:25;;;;;;;10.40;5.57;;;;;;;;;;5074309;28;20496;-73
2021/08/19 14:27:54;;;;;;;6.57;5.97;;;;;;;;;;5055776;28;20917;-70
2021/08/19 14:30:24;;;;;;;8.27;5.17;;;;;;;;;;5064724;28;20472;-71
2021/08/19 14:32:55;;;;;;;6.87;5.33;;;;;;;;;;5071608;28;20451;-71
2021/08/19 14:35:23;;;;;;;8.37;6.20;;;;;;;;;;5071200;28;20552;-70
2021/08/19 14:38:01;;;;;;;8.80;6.50;;;;;;;;;;5071636;28;20453;-70
2021/08/19 14:40:47;;;;;;;8.90;6.00;;;;;;;;;;5071076;28;20456;-71
2021/08/19 14:43:16;;;;;;;7.70;5.60;;;;;;;;;;5044913;28;20487;-70
2021/08/19 14:45:50;;;;;;;7.90;6.23;;;;;;;;;;5076447;28;20468;-70
2021/08/19 14:48:18;;;;;;;6.20;5.10;;;;;;;;;;5060930;28;20491;-71
2021/08/19 14:50:46;;;;;;;8.60;5.93;;;;;;;;;;5071111;28;21086;-71
2021/08/19 14:53:25;;;;;;;7.50;5.63;;;;;;;;;;5075532;28;20546;-71
2021/08/19 14:55:54;;;;;;;8.03;6.13;;;;;;;;;;5071123;28;20483;-70
2021/08/19 14:58:22;;;;;;;9.90;5.10;;;;;;;;;;5070386;28;22147;-71
2021/08/19 15:00:50;;;;;;;8.00;6.23;;;;;;;;;;5068535;28;20448;-71
2021/08/19 15:03:20;;;;;;;6.33;5.63;;;;;;;;;;5073837;28;20476;-71
2021/08/19 15:05:48;;;;;;;5.73;5.10;;;;;;;;;;5071341;28;20459;-70
2021/08/19 15:08:18;;;;;;;7.83;5.77;;;;;;;;;;5071206;28;20524;-71